Time;durP1;ratioP1;P1;durP2;ratioP2;P2;SDS_P1;SDS_P2;PMS_P1;PMS_P2;Temp;Humidity;BMP_temperature;BMP_pressure;BME280_temperature;BME280_humidity;BME280_pressure;Samples;Min_cycle;Max_cycle;Signal;HPM_P1;HPM_P2
2024/01/31 00:02:02;;;;;;;;;;;;;;;6.94;86.85;102111.22;4927043;28;19927;-84
2024/01/31 00:04:29;;;;;;;;;;;;;;;6.99;86.63;102105.25;4926879;28;19931;-84
2024/01/31 00:06:56;;;;;;;;;;;;;;;6.99;86.47;102113.06;4920206;28;19931;-84
2024/01/31 00:09:22;;;;;;;;;;;;;;;6.99;86.64;102118.31;4906680;28;19931;-85
2024/01/31 00:11:49;;;;;;;;;;;;;;;7.12;86.60;102120.38;4923355;29;19927;-84
2024/01/31 00:14:18;;;;;;;;;;;;;;;7.24;85.97;102120.72;4923567;28;19930;-86
2024/01/31 00:16:44;;;;;;;;;;;;;;;7.21;85.96;102117.13;4924627;28;19927;-85
2024/01/31 00:19:11;;;;;;;;;;;;;;;7.17;86.12;102113.56;4925353;28;19950;-83
2024/01/31 00:21:38;;;;;;;;;;;;;;;7.08;86.45;102110.69;4922270;28;19938;-86
2024/01/31 00:24:05;;;;;;;;;;;;;;;7.07;86.51;102111.56;4913514;28;19938;-86
2024/01/31 00:26:32;;;;;;;;;;;;;;;7.23;85.96;102113.72;4904715;29;19935;-84
2024/01/31 00:28:59;;;;;;;;;;;;;;;7.28;86.05;102117.31;4926091;28;19937;-87
2024/01/31 00:31:26;;;;;;;;;;;;;;;7.24;86.22;102119.81;4925338;28;19965;-84
2024/01/31 00:33:54;;;;;;;;;;;;;;;7.28;85.87;102127.75;4925828;28;19980;-84
2024/01/31 00:36:21;;;;;;;;;;;;;;;7.34;85.80;102120.94;4919884;28;19963;-85
2024/01/31 00:38:47;;;;;;;;;;;;;;;7.35;85.71;102122.72;4923077;28;20029;-84
2024/01/31 00:41:14;;;;;;;;;;;;;;;7.35;85.70;102118.34;4925483;28;19930;-85
2024/01/31 00:43:41;;;;;;;;;;;;;;;7.30;85.80;102115.63;4925126;28;19953;-84
2024/01/31 00:46:08;;;;;;;;;;;;;;;7.32;85.83;102116.53;4925042;28;19998;-85
2024/01/31 00:48:34;;;;;;;;;;;;;;;7.25;86.35;102111.13;4916746;28;19941;-85
2024/01/31 00:51:01;;;;;;;;;;;;;;;7.23;86.15;102108.50;4901153;28;19983;-85
2024/01/31 00:53:30;;;;;;;;;;;;;;;7.29;86.08;102105.16;4913342;28;20095;-84
2024/01/31 00:55:57;;;;;;;;;;;;;;;7.31;85.82;102111.28;4917324;28;20390;-88
2024/01/31 00:58:23;;;;;;;;;;;;;;;7.26;86.06;102116.41;4909213;29;19990;-84
2024/01/31 01:00:50;;;;;;;;;;;;;;;7.31;86.10;102109.56;4915482;28;19930;-84
2024/01/31 01:03:17;;;;;;;;;;;;;;;7.37;85.98;102106.25;4925021;28;19985;-84
2024/01/31 01:05:43;;;;;;;;;;;;;;;7.32;85.76;102106.09;4922496;28;19931;-89
2024/01/31 01:08:10;;;;;;;;;;;;;;;7.26;86.09;102105.09;4921205;28;19931;-85
2024/01/31 01:10:37;;;;;;;;;;;;;;;7.34;85.97;102110.47;4913318;28;19931;-86
2024/01/31 01:13:04;;;;;;;;;;;;;;;7.37;86.07;102106.25;4897995;28;19931;-87
2024/01/31 01:15:30;;;;;;;;;;;;;;;7.42;85.61;102106.34;4915002;28;20075;-84
2024/01/31 01:17:57;;;;;;;;;;;;;;;7.41;85.72;102112.41;4920152;28;19930;-86
2024/01/31 01:20:24;;;;;;;;;;;;;;;7.40;85.88;102105.41;4913295;29;19930;-85
2024/01/31 01:22:50;;;;;;;;;;;;;;;7.30;86.03;102110.41;4913581;28;19960;-84
2024/01/31 01:25:17;;;;;;;;;;;;;;;7.36;85.79;102112.28;4919952;29;19931;-87
2024/01/31 01:27:50;;;;;;;;;;;;;;;7.43;86.03;102108.09;4924684;28;19993;-85
2024/01/31 01:30:18;;;;;;;;;;;;;;;7.34;85.93;102115.72;4927869;28;20287;-84
2024/01/31 01:32:45;;;;;;;;;;;;;;;7.31;86.06;102113.91;4926889;28;19931;-88
2024/01/31 01:35:12;;;;;;;;;;;;;;;7.35;86.14;102107.91;4914611;28;19947;-85
2024/01/31 01:37:38;;;;;;;;;;;;;;;7.30;86.06;102106.94;4922587;28;19937;-87
2024/01/31 01:40:06;;;;;;;;;;;;;;;7.32;85.96;102108.72;4908330;29;19931;-86
2024/01/31 01:42:36;;;;;;;;;;;;;;;7.28;86.14;102109.47;4924704;28;19942;-85
2024/01/31 01:45:03;;;;;;;;;;;;;;;7.24;86.51;102110.25;4931052;28;19943;-88
2024/01/31 01:47:29;;;;;;;;;;;;;;;7.20;86.69;102103.19;4928148;28;19930;-86
2024/01/31 01:49:56;;;;;;;;;;;;;;;7.23;86.44;102111.09;4925288;29;19931;-85
2024/01/31 01:52:24;;;;;;;;;;;;;;;7.32;86.45;102108.72;4926472;28;19957;-88
2024/01/31 01:54:50;;;;;;;;;;;;;;;7.29;86.37;102108.63;4925373;29;19931;-87
2024/01/31 01:57:17;;;;;;;;;;;;;;;7.22;86.43;102101.50;4924780;28;19931;-86
2024/01/31 01:59:44;;;;;;;;;;;;;;;7.21;86.44;102099.75;4921251;29;19937;-86
2024/01/31 02:02:10;;;;;;;;;;;;;;;7.20;86.78;102105.81;4908356;29;19938;-86
2024/01/31 02:04:37;;;;;;;;;;;;;;;7.19;86.78;102105.75;4905689;28;19937;-86
2024/01/31 02:07:04;;;;;;;;;;;;;;;7.16;86.86;102100.47;4924220;29;19937;-85
2024/01/31 02:09:30;;;;;;;;;;;;;;;7.16;86.88;102106.56;4909607;29;19931;-85
2024/01/31 02:11:57;;;;;;;;;;;;;;;7.16;86.71;102100.47;4916712;29;19931;-85
2024/01/31 02:14:25;;;;;;;;;;;;;;;7.13;86.92;102101.28;4924753;28;19968;-85
2024/01/31 02:16:51;;;;;;;;;;;;;;;7.13;86.92;102099.53;4922630;28;20274;-85
2024/01/31 02:19:18;;;;;;;;;;;;;;;7.08;87.18;102097.66;4918622;29;19930;-87
2024/01/31 02:21:45;;;;;;;;;;;;;;;7.07;87.55;102103.72;4920663;28;19935;-84
2024/01/31 02:24:11;;;;;;;;;;;;;;;7.07;87.33;102103.72;4916252;28;19997;-86
2024/01/31 02:26:38;;;;;;;;;;;;;;;7.09;87.51;102104.63;4923892;28;19937;-86
2024/01/31 02:29:05;;;;;;;;;;;;;;;7.01;87.58;102111.38;4927759;28;19961;-85
2024/01/31 02:31:31;;;;;;;;;;;;;;;6.95;87.87;102115.63;4927232;28;20025;-85
2024/01/31 02:33:58;;;;;;;;;;;;;;;7.07;87.73;102115.03;4913047;28;19958;-86
2024/01/31 02:36:25;;;;;;;;;;;;;;;7.26;87.61;102121.63;4923103;28;19982;-86
2024/01/31 02:38:52;;;;;;;;;;;;;;;7.21;87.93;102123.25;4926804;28;19935;-86
2024/01/31 02:41:18;;;;;;;;;;;;;;;7.15;88.60;102120.44;4929068;28;20005;-86
2024/01/31 02:43:45;;;;;;;;;;;;;;;7.12;88.95;102123.00;4924360;28;19930;-86
2024/01/31 02:46:12;;;;;;;;;;;;;;;7.09;89.56;102130.75;4925853;28;20021;-86
2024/01/31 02:48:39;;;;;;;;;;;;;;;7.04;90.05;102122.81;4925616;28;20505;-87
2024/01/31 02:51:05;;;;;;;;;;;;;;;7.04;90.81;102127.13;4927248;28;19938;-84
2024/01/31 02:53:32;;;;;;;;;;;;;;;7.02;91.07;102131.44;4926302;28;19953;-87
2024/01/31 02:55:59;;;;;;;;;;;;;;;6.95;91.58;102123.44;4928942;28;19931;-85
2024/01/31 02:58:26;;;;;;;;;;;;;;;6.90;92.13;102125.03;4926974;28;20006;-84
2024/01/31 03:00:52;;;;;;;;;;;;;;;6.86;92.65;102133.63;4923960;28;19942;-86
2024/01/31 03:03:19;;;;;;;;;;;;;;;6.77;93.00;102129.03;4911969;28;19931;-84
2024/01/31 03:05:46;;;;;;;;;;;;;;;6.74;92.97;102134.16;4931232;28;19933;-87
2024/01/31 03:08:12;;;;;;;;;;;;;;;6.77;92.40;102136.84;4923454;28;19931;-85
2024/01/31 03:10:44;;;;;;;;;;;;;;;6.73;91.03;102141.94;4920061;29;20021;-83
2024/01/31 03:13:11;;;;;;;;;;;;;;;6.69;90.47;102134.88;4917354;28;20049;-85
2024/01/31 03:15:38;;;;;;;;;;;;;;;6.66;90.32;102135.66;4925459;28;19938;-84
2024/01/31 03:18:05;;;;;;;;;;;;;;;6.56;90.32;102134.53;4910522;28;19987;-83
2024/01/31 03:20:34;;;;;;;;;;;;;;;6.50;89.97;102133.47;4921480;28;19981;-83
2024/01/31 03:23:01;;;;;;;;;;;;;;;6.48;89.49;102138.66;4918029;28;19934;-84
2024/01/31 03:25:28;;;;;;;;;;;;;;;6.43;89.25;102135.00;4927058;28;19938;-87
2024/01/31 03:27:55;;;;;;;;;;;;;;;6.41;88.99;102145.41;4907290;28;19931;-85
2024/01/31 03:30:22;;;;;;;;;;;;;;;6.44;88.54;102142.91;4910536;28;19993;-84
2024/01/31 03:32:48;;;;;;;;;;;;;;;6.43;88.12;102142.84;4926971;28;19931;-83
2024/01/31 03:35:15;;;;;;;;;;;;;;;6.46;87.57;102152.47;4928623;28;19938;-83
2024/01/31 03:37:42;;;;;;;;;;;;;;;6.47;87.31;102160.34;4924393;28;19935;-85
2024/01/31 03:40:09;;;;;;;;;;;;;;;6.46;87.55;102150.78;4920628;28;19931;-84
2024/01/31 03:42:36;;;;;;;;;;;;;;;6.39;87.85;102151.44;4925636;28;19930;-83
2024/01/31 03:45:04;;;;;;;;;;;;;;;6.36;88.38;102149.63;4915508;28;20382;-85
2024/01/31 03:47:34;;;;;;;;;;;;;;;6.40;88.08;102150.56;4904528;28;20292;-82
2024/01/31 03:50:02;;;;;;;;;;;;;;;6.38;88.06;102152.25;4910298;28;19931;-83
2024/01/31 03:52:30;;;;;;;;;;;;;;;6.44;87.92;102169.00;4926347;28;19931;-87
2024/01/31 03:54:57;;;;;;;;;;;;;;;6.48;88.19;102177.78;4928103;28;19962;-83
2024/01/31 03:57:24;;;;;;;;;;;;;;;6.48;88.06;102179.50;4924473;28;19941;-84
2024/01/31 03:59:50;;;;;;;;;;;;;;;6.41;88.26;102181.03;4923304;28;19930;-84
2024/01/31 04:02:17;;;;;;;;;;;;;;;6.37;88.54;102179.16;4924203;29;20012;-83
2024/01/31 04:04:44;;;;;;;;;;;;;;;6.42;88.06;102183.69;4925899;28;19942;-83
2024/01/31 04:07:11;;;;;;;;;;;;;;;6.40;88.00;102169.72;4930383;28;19937;-83
2024/01/31 04:09:37;;;;;;;;;;;;;;;6.37;88.16;102179.16;4923900;29;19937;-85
2024/01/31 04:12:04;;;;;;;;;;;;;;;6.41;87.75;102175.81;4926611;28;19935;-86
2024/01/31 04:14:31;;;;;;;;;;;;;;;6.36;87.51;102172.22;4924625;29;19927;-84
2024/01/31 04:16:58;;;;;;;;;;;;;;;6.34;88.01;102184.28;4920058;28;19930;-83
2024/01/31 04:19:24;;;;;;;;;;;;;;;6.34;87.65;102199.94;4926794;28;19957;-83
2024/01/31 04:21:52;;;;;;;;;;;;;;;6.36;87.42;102198.28;4926526;28;20045;-83
2024/01/31 04:24:19;;;;;;;;;;;;;;;6.37;87.18;102205.25;4925744;28;19931;-83
2024/01/31 04:26:46;;;;;;;;;;;;;;;6.37;86.92;102203.53;4920956;28;19966;-84
2024/01/31 04:29:12;;;;;;;;;;;;;;;6.33;86.89;102204.28;4926916;28;19930;-85
2024/01/31 04:31:39;;;;;;;;;;;;;;;6.28;86.82;102199.75;4926099;28;19930;-87
2024/01/31 04:34:06;;;;;;;;;;;;;;;6.24;86.93;102183.13;4926859;28;20009;-84
2024/01/31 04:36:33;;;;;;;;;;;;;;;6.20;86.78;102184.78;4924778;28;20019;-88
2024/01/31 04:39:00;;;;;;;;;;;;;;;6.35;83.70;102184.34;4924280;28;19931;-86
2024/01/31 04:41:27;;;;;;;;;;;;;;;6.40;83.42;102189.69;4925528;28;20324;-83
2024/01/31 04:43:54;;;;;;;;;;;;;;;6.34;83.88;102189.50;4926435;28;19931;-84
2024/01/31 04:46:21;;;;;;;;;;;;;;;6.30;83.93;102188.56;4928010;28;20014;-86
2024/01/31 04:48:48;;;;;;;;;;;;;;;6.30;83.57;102193.75;4930134;28;19956;-84
2024/01/31 04:51:16;;;;;;;;;;;;;;;6.26;83.57;102203.19;4931743;28;19931;-86
2024/01/31 04:53:43;;;;;;;;;;;;;;;6.32;82.66;102206.84;4928034;28;19937;-85
2024/01/31 04:56:09;;;;;;;;;;;;;;;6.29;82.66;102209.38;4927865;28;19937;-85
2024/01/31 04:58:36;;;;;;;;;;;;;;;6.26;81.97;102203.19;4927166;28;19970;-86
2024/01/31 05:01:05;;;;;;;;;;;;;;;6.24;81.27;102202.28;4929799;28;19930;-83
2024/01/31 05:03:32;;;;;;;;;;;;;;;6.21;80.81;102204.81;4930312;28;19934;-84
2024/01/31 05:05:58;;;;;;;;;;;;;;;6.29;79.67;102211.97;4924723;28;19930;-84
2024/01/31 05:08:26;;;;;;;;;;;;;;;6.31;78.99;102207.69;4926790;29;19935;-85
2024/01/31 05:10:53;;;;;;;;;;;;;;;6.38;77.63;102199.19;4932332;29;19978;-83
2024/01/31 05:13:19;;;;;;;;;;;;;;;6.47;76.47;102193.38;4929502;28;19930;-85
2024/01/31 05:15:46;;;;;;;;;;;;;;;6.32;77.66;102192.06;4927611;28;19930;-86
2024/01/31 05:18:14;;;;;;;;;;;;;;;6.38;76.59;102186.16;4927750;28;19931;-82
2024/01/31 05:20:41;;;;;;;;;;;;;;;6.45;75.97;102188.13;4926064;28;19930;-84
2024/01/31 05:23:08;;;;;;;;;;;;;;;6.35;76.75;102176.53;4927959;28;19930;-84
2024/01/31 05:25:34;;;;;;;;;;;;;;;6.31;77.14;102184.22;4926592;28;19934;-83
2024/01/31 05:28:01;;;;;;;;;;;;;;;6.30;77.45;102203.28;4921279;28;19931;-85
2024/01/31 05:30:28;;;;;;;;;;;;;;;6.40;76.34;102210.56;4927496;28;19930;-83
2024/01/31 05:32:54;;;;;;;;;;;;;;;6.33;76.77;102209.50;4927547;28;19931;-86
2024/01/31 05:35:21;;;;;;;;;;;;;;;6.28;76.82;102207.59;4921976;29;19931;-86
2024/01/31 05:37:48;;;;;;;;;;;;;;;6.24;77.11;102199.69;4909339;29;19928;-85
2024/01/31 05:40:16;;;;;;;;;;;;;;;6.20;77.00;102208.22;4932245;28;19935;-84
2024/01/31 05:42:43;;;;;;;;;;;;;;;6.17;77.23;102213.34;4932684;28;19938;-83
2024/01/31 05:45:11;;;;;;;;;;;;;;;6.15;76.64;102209.78;4924417;28;20483;-82
2024/01/31 05:47:38;;;;;;;;;;;;;;;6.20;76.27;102204.72;4929240;28;19981;-83
2024/01/31 05:50:05;;;;;;;;;;;;;;;6.15;76.15;102214.13;4926880;28;19931;-84
2024/01/31 05:52:32;;;;;;;;;;;;;;;6.16;75.73;102222.00;4924524;28;19935;-84
2024/01/31 05:54:58;;;;;;;;;;;;;;;6.17;75.26;102213.34;4907937;28;19931;-88
2024/01/31 05:57:26;;;;;;;;;;;;;;;6.13;75.71;102216.69;4929343;29;19946;-88
2024/01/31 05:59:52;;;;;;;;;;;;;;;6.06;76.34;102222.56;4926970;28;19942;-85
2024/01/31 06:02:19;;;;;;;;;;;;;;;6.03;75.68;102225.94;4923569;28;19931;-85
2024/01/31 06:04:46;;;;;;;;;;;;;;;6.02;75.66;102218.94;4925873;28;19955;-85
2024/01/31 06:07:12;;;;;;;;;;;;;;;6.00;76.09;102210.22;4925165;28;19974;-85
2024/01/31 06:09:39;;;;;;;;;;;;;;;5.97;76.05;102206.56;4927565;29;19935;-85
2024/01/31 06:12:06;;;;;;;;;;;;;;;5.87;77.14;102202.81;4929225;28;19941;-84
2024/01/31 06:14:36;;;;;;;;;;;;;;;5.80;77.36;102214.72;4933995;28;20329;-88
2024/01/31 06:17:03;;;;;;;;;;;;;;;5.78;77.46;102206.00;4922437;28;19931;-87
2024/01/31 06:19:30;;;;;;;;;;;;;;;5.87;76.03;102197.59;4922675;28;20022;-85
2024/01/31 06:21:57;;;;;;;;;;;;;;;5.86;75.73;102201.91;4923744;29;19938;-88
2024/01/31 06:24:24;;;;;;;;;;;;;;;5.77;76.38;102209.44;4921635;28;19931;-84
2024/01/31 06:26:50;;;;;;;;;;;;;;;5.81;75.86;102219.13;4911489;28;19941;-84
2024/01/31 06:29:18;;;;;;;;;;;;;;;5.74;76.19;102219.75;4926615;28;20029;-83
2024/01/31 06:31:48;;;;;;;;;;;;;;;5.65;76.57;102211.59;4933135;28;20017;-87
2024/01/31 06:34:15;;;;;;;;;;;;;;;5.58;76.76;102206.19;4921111;28;19934;-86
2024/01/31 06:36:44;;;;;;;;;;;;;;;5.53;76.72;102207.78;4925927;28;19930;-85
2024/01/31 06:39:10;;;;;;;;;;;;;;;5.30;79.20;102211.28;4926090;28;20011;-85
2024/01/31 06:41:37;;;;;;;;;;;;;;;5.21;80.29;102210.16;4927107;29;19931;-84
2024/01/31 06:44:04;;;;;;;;;;;;;;;5.17;80.62;102208.28;4920168;28;19937;-84
2024/01/31 06:46:31;;;;;;;;;;;;;;;5.16;80.57;102201.28;4929464;28;20495;-84
2024/01/31 06:48:58;;;;;;;;;;;;;;;5.05;81.15;102206.13;4921488;28;19986;-86
2024/01/31 06:51:25;;;;;;;;;;;;;;;5.07;80.67;102206.19;4919050;29;20394;-85
2024/01/31 06:53:52;;;;;;;;;;;;;;;5.17;79.68;102208.28;4926841;28;19931;-86
2024/01/31 06:56:19;;;;;;;;;;;;;;;5.11;79.22;102202.81;4918704;29;19930;-84
2024/01/31 06:58:46;;;;;;;;;;;;;;;5.18;78.49;102198.75;4917914;28;20387;-83
2024/01/31 07:01:16;;;;;;;;;;;;;;;5.14;79.32;102196.84;4921950;28;20022;-86
2024/01/31 07:03:44;;;;;;;;;;;;;;;5.13;79.09;102208.13;4915001;28;19931;-87
2024/01/31 07:06:11;;;;;;;;;;;;;;;5.21;77.82;102210.16;4907445;28;19962;-86
2024/01/31 07:08:38;;;;;;;;;;;;;;;5.07;79.25;102219.19;4914301;29;19937;-85
2024/01/31 07:11:07;;;;;;;;;;;;;;;4.97;79.91;102227.50;4917916;29;19927;-86
2024/01/31 07:13:38;;;;;;;;;;;;;;;5.02;79.42;102228.53;4926124;28;19931;-87
2024/01/31 07:16:09;;;;;;;;;;;;;;;4.98;79.37;102230.16;4915719;28;20438;-85
2024/01/31 07:18:39;;;;;;;;;;;;;;;4.94;79.97;102230.88;4923496;28;19941;-87
2024/01/31 07:21:06;;;;;;;;;;;;;;;4.87;80.57;102227.16;4926256;28;20002;-90
2024/01/31 07:23:36;;;;;;;;;;;;;;;5.09;78.18;102222.72;4918594;28;19942;-85
2024/01/31 07:26:03;;;;;;;;;;;;;;;5.13;77.62;102228.94;4916535;29;19931;-84
2024/01/31 07:28:31;;;;;;;;;;;;;;;5.18;76.96;102243.00;4922308;28;19938;-88
2024/01/31 07:30:58;;;;;;;;;;;;;;;5.19;76.58;102242.16;4936947;28;19989;-86
2024/01/31 07:33:25;;;;;;;;;;;;;;;5.27;75.83;102245.94;4917668;28;19942;-84
2024/01/31 07:35:52;;;;;;;;;;;;;;;5.18;76.50;102249.06;4919582;28;19931;-83
2024/01/31 07:38:18;;;;;;;;;;;;;;;5.22;76.47;102252.69;4922375;28;20022;-87
2024/01/31 07:40:47;;;;;;;;;;;;;;;5.24;76.41;102253.59;4921100;28;19971;-85
2024/01/31 07:43:14;;;;;;;;;;;;;;;5.26;76.40;102248.44;4925277;28;19941;-84
2024/01/31 07:45:41;;;;;;;;;;;;;;;5.27;76.54;102245.94;4927971;28;20041;-83
2024/01/31 07:48:08;;;;;;;;;;;;;;;5.25;76.77;102251.91;4920622;28;19942;-87
2024/01/31 07:50:34;;;;;;;;;;;;;;;5.25;76.93;102257.13;4901998;28;19934;-87
2024/01/31 07:53:02;;;;;;;;;;;;;;;5.27;76.36;102256.34;4905847;28;19937;-89
2024/01/31 07:57:57;;;;;;;;;;;;;;;5.37;75.81;102254.94;5103350;23;19931;-87
2024/01/31 08:02:48;;;;;;;;;;;;;;;5.36;76.32;102261.00;5187898;23;19926;-92
2024/01/31 08:05:18;;;;;;;;;;;;;;;5.42;75.92;102261.19;4894625;28;19940;-88
2024/01/31 08:07:45;;;;;;;;;;;;;;;5.43;75.71;102257.78;4932442;28;19931;-87
2024/01/31 08:10:12;;;;;;;;;;;;;;;5.42;76.16;102256.00;4915287;28;19985;-87
2024/01/31 08:12:41;;;;;;;;;;;;;;;5.42;78.79;102261.19;4880481;29;19982;-88
2024/01/31 08:15:10;;;;;;;;;;;;;;;5.36;80.68;102269.69;4914004;28;19927;-87
2024/01/31 08:17:36;;;;;;;;;;;;;;;5.28;81.38;102262.44;4913306;29;19942;-87
2024/01/31 08:20:06;;;;;;;;;;;;;;;5.26;80.30;102262.38;4897497;29;19970;-86
2024/01/31 08:22:33;;;;;;;;;;;;;;;5.30;79.79;102255.53;4891879;28;19932;-88
2024/01/31 08:25:05;;;;;;;;;;;;;;;5.38;79.42;102265.41;4897493;29;19930;-87
2024/01/31 08:27:32;;;;;;;;;;;;;;;5.42;80.32;102258.59;4919231;28;19963;-86
2024/01/31 08:29:58;;;;;;;;;;;;;;;5.43;80.77;102252.56;4912852;28;20089;-89
2024/01/31 08:32:26;;;;;;;;;;;;;;;5.44;80.02;102264.75;4920371;28;19954;-88
2024/01/31 08:34:53;;;;;;;;;;;;;;;5.47;79.54;102254.41;4906401;29;19939;-87
2024/01/31 08:37:21;;;;;;;;;;;;;;;5.51;80.44;102251.09;4890481;28;19982;-88
2024/01/31 08:39:48;;;;;;;;;;;;;;;5.55;79.26;102258.19;4904035;28;20043;-89
2024/01/31 08:42:16;;;;;;;;;;;;;;;5.60;78.95;102260.94;4893335;29;19942;-87
2024/01/31 08:44:43;;;;;;;;;;;;;;;5.61;78.34;102261.84;4911699;28;20003;-88
2024/01/31 08:47:10;;;;;;;;;;;;;;;5.66;78.51;102252.47;4898725;29;19942;-87
2024/01/31 08:49:41;;;;;;;;;;;;;;;5.72;78.06;102250.06;4897861;29;19927;-88
2024/01/31 08:52:09;;;;;;;;;;;;;;;5.77;77.24;102253.72;4913162;28;19942;-86
2024/01/31 08:54:36;;;;;;;;;;;;;;;5.88;77.67;102257.56;4923810;28;19935;-87
2024/01/31 08:57:02;;;;;;;;;;;;;;;5.90;76.61;102250.69;4914626;29;19931;-88
2024/01/31 08:59:29;;;;;;;;;;;;;;;5.99;76.87;102249.25;4910230;28;19931;-88
2024/01/31 09:01:56;;;;;;;;;;;;;;;6.05;77.06;102250.34;4917023;28;19941;-87
2024/01/31 09:04:22;;;;;;;;;;;;;;;6.18;76.75;102259.41;4922121;28;19927;-87
2024/01/31 09:06:50;;;;;;;;;;;;;;;6.22;76.97;102253.47;4919240;28;19931;-89
2024/01/31 09:09:17;;;;;;;;;;;;;;;6.28;76.85;102258.00;4922998;28;19939;-87
2024/01/31 09:11:44;;;;;;;;;;;;;;;6.31;76.21;102252.00;4919875;29;19937;-89
2024/01/31 09:14:14;;;;;;;;;;;;;;;6.39;75.37;102260.97;4921621;28;19984;-86
2024/01/31 09:16:41;;;;;;;;;;;;;;;6.43;75.08;102257.59;4909983;28;20007;-87
2024/01/31 09:19:09;;;;;;;;;;;;;;;6.49;74.85;102262.09;4919341;28;19931;-87
2024/01/31 09:21:36;;;;;;;;;;;;;;;6.52;73.51;102250.06;4922136;28;19942;-87
2024/01/31 09:24:03;;;;;;;;;;;;;;;6.59;73.50;102245.94;4919934;29;19938;-88
2024/01/31 09:26:30;;;;;;;;;;;;;;;6.73;72.50;102248.94;4908642;29;19942;-89
2024/01/31 09:28:57;;;;;;;;;;;;;;;6.77;71.85;102248.19;4927133;28;19938;-86
2024/01/31 09:31:25;;;;;;;;;;;;;;;6.86;73.08;102240.63;4900845;28;20018;-86
2024/01/31 09:33:52;;;;;;;;;;;;;;;6.86;71.06;102248.44;4910620;29;19994;-87
2024/01/31 09:36:19;;;;;;;;;;;;;;;6.97;71.18;102249.66;4924345;28;19931;-88
2024/01/31 09:38:49;;;;;;;;;;;;;;;6.99;71.52;102243.59;4889326;29;20022;-87
2024/01/31 09:41:19;;;;;;;;;;;;;;;7.05;71.64;102236.81;4914828;28;19937;-86
2024/01/31 09:43:47;;;;;;;;;;;;;;;7.17;72.51;102238.91;4908944;29;20517;-87
2024/01/31 09:46:17;;;;;;;;;;;;;;;7.20;71.82;102233.75;4919803;29;19931;-90
2024/01/31 09:48:45;;;;;;;;;;;;;;;7.22;71.72;102228.56;4881732;29;19987;-87
2024/01/31 09:51:12;;;;;;;;;;;;;;;7.27;70.62;102226.94;4925521;29;19991;-88
2024/01/31 09:53:38;;;;;;;;;;;;;;;7.34;70.68;102233.25;4927434;29;19934;-88
2024/01/31 09:56:05;;;;;;;;;;;;;;;7.49;70.12;102221.47;4907928;29;19930;-88
2024/01/31 09:58:32;;;;;;;;;;;;;;;7.64;70.97;102214.88;4915716;28;19970;-91
2024/01/31 10:01:03;;;;;;;;;;;;;;;7.59;70.88;102212.16;4926279;28;19931;-86
2024/01/31 10:03:40;;;;;;;;;;;;;;;7.68;70.19;102219.34;4926150;28;20395;-89
2024/01/31 10:06:06;;;;;;;;;;;;;;;7.59;68.07;102222.59;4916229;28;19939;-90
2024/01/31 10:08:38;;;;;;;;;;;;;;;7.61;68.35;102213.06;4926521;28;19931;-86
2024/01/31 10:11:05;;;;;;;;;;;;;;;7.65;70.72;102212.28;4925855;28;19972;-88
2024/01/31 10:13:32;;;;;;;;;;;;;;;7.72;70.56;102213.34;4927047;28;20209;-87
2024/01/31 10:15:59;;;;;;;;;;;;;;;7.87;70.63;102207.59;4923328;28;19931;-88
2024/01/31 10:18:28;;;;;;;;;;;;;;;7.86;70.56;102205.81;4910376;29;19959;-89
2024/01/31 10:20:57;;;;;;;;;;;;;;;7.94;71.35;102204.28;4913933;29;20016;-89
2024/01/31 10:23:23;;;;;;;;;;;;;;;7.89;71.66;102199.78;4923194;29;20022;-87
2024/01/31 10:25:51;;;;;;;;;;;;;;;7.92;71.16;102195.53;4913300;28;19939;-88
2024/01/31 10:28:21;;;;;;;;;;;;;;;7.98;69.63;102190.44;4889984;29;19931;-88
2024/01/31 10:30:49;;;;;;;;;;;;;;;7.92;68.09;102190.31;4918709;28;19931;-89
2024/01/31 10:33:15;;;;;;;;;;;;;;;8.09;69.11;102187.19;4916920;28;19931;-88
2024/01/31 10:35:43;;;;;;;;;;;;;;;8.09;69.86;102192.41;4921503;28;19934;-92
2024/01/31 10:38:13;;;;;;;;;;;;;;;8.05;69.47;102185.34;4914300;28;20026;-88
2024/01/31 10:40:42;;;;;;;;;;;;;;;8.13;69.16;102181.19;4903430;29;19977;-88
2024/01/31 10:43:10;;;;;;;;;;;;;;;8.24;70.28;102181.41;4911862;28;19936;-88
2024/01/31 10:45:38;;;;;;;;;;;;;;;8.29;69.58;102183.28;4907652;29;19985;-92
2024/01/31 10:48:05;;;;;;;;;;;;;;;8.46;67.98;102181.09;4922154;28;20033;-88
2024/01/31 10:50:33;;;;;;;;;;;;;;;8.70;68.73;102178.09;4898557;29;19942;-90
2024/01/31 10:53:00;;;;;;;;;;;;;;;8.50;68.89;102175.06;4934721;28;20414;-90
2024/01/31 10:55:27;;;;;;;;;;;;;;;8.54;65.93;102176.00;4911350;29;19930;-90
2024/01/31 10:57:54;;;;;;;;;;;;;;;8.78;67.16;102174.75;4906769;29;19959;-90
2024/01/31 11:00:25;;;;;;;;;;;;;;;8.81;67.66;102164.34;4890591;29;19931;-88
2024/01/31 11:02:55;;;;;;;;;;;;;;;8.75;66.83;102159.88;4911347;29;19995;-90
2024/01/31 11:05:22;;;;;;;;;;;;;;;8.83;67.07;102171.34;4918776;28;19930;-88
2024/01/31 11:07:50;;;;;;;;;;;;;;;8.69;68.11;102172.84;4898461;29;19973;-88
2024/01/31 11:10:22;;;;;;;;;;;;;;;8.75;66.41;102169.44;4915801;29;20354;-88
2024/01/31 11:13:01;;;;;;;;;;;;;;;8.76;66.72;102163.34;4924575;29;19927;-88
2024/01/31 11:15:29;;;;;;;;;;;;;;;8.75;65.93;102166.81;4901261;29;19938;-88
2024/01/31 11:18:06;;;;;;;;;;;;;;;8.82;64.83;102160.84;4916848;29;20032;-89
2024/01/31 11:20:35;;;;;;;;;;;;;;;8.70;65.13;102161.50;4921617;28;19930;-88
2024/01/31 11:23:03;;;;;;;;;;;;;;;8.78;65.03;102170.41;4919928;29;19941;-91
2024/01/31 11:25:36;;;;;;;;;;;;;;;8.91;64.48;102166.28;4916900;28;20037;-88
2024/01/31 11:28:04;;;;;;;;;;;;;;;8.89;65.40;102160.13;4918655;29;20053;-89
2024/01/31 11:30:31;;;;;;;;;;;;;;;8.95;66.51;102155.03;4925376;28;20020;-90
2024/01/31 11:33:01;;;;;;;;;;;;;;;8.75;65.00;102156.34;4902776;28;20025;-88
2024/01/31 11:35:31;;;;;;;;;;;;;;;8.88;65.34;102146.16;4923000;28;19982;-88
2024/01/31 11:38:00;;;;;;;;;;;;;;;8.77;64.90;102152.03;4926432;28;19937;-89
2024/01/31 11:40:27;;;;;;;;;;;;;;;8.79;65.85;102153.84;4923324;28;19956;-91
2024/01/31 11:43:01;;;;;;;;;;;;;;;8.73;67.75;102160.69;4877136;29;20343;-89
2024/01/31 11:45:33;;;;;;;;;;;;;;;8.79;67.62;102150.31;4915555;28;19941;-88
2024/01/31 11:48:09;;;;;;;;;;;;;;;8.52;67.64;102156.78;4906671;29;19942;-89
2024/01/31 11:50:36;;;;;;;;;;;;;;;8.68;68.67;102143.16;4874397;29;20070;-88
2024/01/31 11:53:03;;;;;;;;;;;;;;;8.60;69.21;102139.47;4906548;29;19969;-90
2024/01/31 11:55:30;;;;;;;;;;;;;;;8.64;69.86;102132.59;4913401;29;19969;-90
2024/01/31 11:57:57;;;;;;;;;;;;;;;8.66;69.73;102143.97;4915239;28;19931;-89
2024/01/31 12:00:23;;;;;;;;;;;;;;;8.60;69.59;102134.25;4908195;28;19931;-89
2024/01/31 12:02:52;;;;;;;;;;;;;;;8.69;69.59;102146.66;4925436;28;19931;-87
2024/01/31 12:05:19;;;;;;;;;;;;;;;8.78;69.06;102133.75;4912478;28;19966;-88
2024/01/31 12:07:56;;;;;;;;;;;;;;;8.77;68.79;102131.09;4888036;29;19938;-89
2024/01/31 12:10:37;;;;;;;;;;;;;;;9.05;70.50;102133.38;4923049;28;19934;-90
2024/01/31 12:13:04;;;;;;;;;;;;;;;8.88;69.54;102134.81;4913931;28;19939;-88
2024/01/31 12:15:31;;;;;;;;;;;;;;;8.73;67.50;102130.16;4920939;28;20406;-89
2024/01/31 12:17:59;;;;;;;;;;;;;;;8.94;67.73;102123.56;4924746;28;19958;-90
2024/01/31 12:20:26;;;;;;;;;;;;;;;8.91;66.98;102124.41;4925656;28;20017;-91
2024/01/31 12:22:53;;;;;;;;;;;;;;;8.89;67.03;102131.31;4908130;29;20061;-88
2024/01/31 12:25:20;;;;;;;;;;;;;;;8.92;67.51;102120.94;4895132;29;19931;-89
2024/01/31 12:27:47;;;;;;;;;;;;;;;8.87;67.48;102117.34;4918835;28;19949;-88
2024/01/31 12:30:15;;;;;;;;;;;;;;;8.86;67.66;102119.09;4911723;29;19997;-91
2024/01/31 12:32:43;;;;;;;;;;;;;;;8.87;67.69;102110.34;4912497;29;20025;-89
2024/01/31 12:35:09;;;;;;;;;;;;;;;8.94;68.23;102107.88;4920771;28;19945;-88
2024/01/31 12:37:39;;;;;;;;;;;;;;;9.07;67.96;102108.94;4923543;28;19937;-88
2024/01/31 12:40:08;;;;;;;;;;;;;;;9.03;67.88;102103.66;4926503;28;20022;-88
2024/01/31 12:42:35;;;;;;;;;;;;;;;9.02;68.26;102096.69;4920553;28;19941;-89
2024/01/31 12:45:03;;;;;;;;;;;;;;;9.12;68.71;102096.81;4920743;29;19935;-90
2024/01/31 12:47:30;;;;;;;;;;;;;;;9.24;67.83;102086.56;4921042;28;19931;-88
2024/01/31 12:49:57;;;;;;;;;;;;;;;9.19;67.70;102077.75;4916693;29;20367;-90
2024/01/31 12:52:24;;;;;;;;;;;;;;;9.11;68.47;102074.09;4919839;28;19927;-88
2024/01/31 12:54:52;;;;;;;;;;;;;;;9.13;68.22;102061.94;4919240;29;19931;-87